Main page
METAR-TAF:

METAR-TAF

Airports :

Tangier Ibn Battouta Airport

Tangier, Morocco

latitude: 35-44N, longitude: 005-54W, elevation: 19 m

Current weather observation

The report was made 35 minutes ago, at 01:30 UTC
Wind 5 kt from the South, varying between Southeast and South/Southwest
Temperature 21°C
Humidity 83%
Pressure 1016 hPa
Visibility 10 km or more
no clouds below 1500 m and no cumulonimbus

METAR: GMTT 150130Z 17005KT 130V200 CAVOK 21/18 Q1016 NOSIG

Time: 03:05 (02:05 UTC)

Forecast

The report was made 3 hours and 5 minutes ago, at 23:00 UTC
Forecast valid from 15 at 00 UTC to 16 at 06 UTC
Wind 4 kt from the South/Southwest
Visibility 10 km or more
no clouds below 1500 m and no cumulonimbus

TAF: GMTT 142300Z 1500/1606 21004KT CAVOK

Weather observations and forecasts of more than 4000 airports (METAR and TAF reports).

The available stations are represented by yellow and red dots on the map.

Hover mouse over dot to see the name of the station.

Then click to see weather observations and forecasts.

To change the map : click on the green buttons with a black cross to zoom in, on the green button with a dash to zoom out, or on the green arrows for adjacent maps.


METAR-TAF: